sensor_id;sensor_type;location;lat;lon;timestamp;P1;durP1;ratioP1;P2;durP2;ratioP2
40939;SDS011;26666;50.156;7.700;2023-06-22T00:03:18;4.03;;;2.47;;
40939;SDS011;26666;50.156;7.700;2023-06-22T00:08:21;4.75;;;2.40;;
40939;SDS011;26666;50.156;7.700;2023-06-22T00:13:24;5.28;;;2.75;;
40939;SDS011;26666;50.156;7.700;2023-06-22T00:18:26;5.70;;;3.70;;
40939;SDS011;26666;50.156;7.700;2023-06-22T00:23:28;3.72;;;2.28;;
40939;SDS011;26666;50.156;7.700;2023-06-22T00:28:31;4.22;;;3.05;;
40939;SDS011;26666;50.156;7.700;2023-06-22T00:33:32;4.88;;;2.92;;
40939;SDS011;26666;50.156;7.700;2023-06-22T00:38:35;3.05;;;2.42;;
40939;SDS011;26666;50.156;7.700;2023-06-22T00:43:38;4.68;;;2.78;;
40939;SDS011;26666;50.156;7.700;2023-06-22T00:48:40;5.00;;;2.80;;
40939;SDS011;26666;50.156;7.700;2023-06-22T00:53:42;2.90;;;2.17;;
40939;SDS011;26666;50.156;7.700;2023-06-22T00:58:45;3.25;;;2.58;;
40939;SDS011;26666;50.156;7.700;2023-06-22T01:03:47;11.98;;;3.17;;
40939;SDS011;26666;50.156;7.700;2023-06-22T01:08:51;3.00;;;2.38;;
40939;SDS011;26666;50.156;7.700;2023-06-22T01:14:00;6.88;;;3.30;;
40939;SDS011;26666;50.156;7.700;2023-06-22T01:19:09;7.95;;;4.00;;
40939;SDS011;26666;50.156;7.700;2023-06-22T01:24:27;7.47;;;2.58;;
40939;SDS011;26666;50.156;7.700;2023-06-22T01:29:34;6.45;;;2.83;;
40939;SDS011;26666;50.156;7.700;2023-06-22T01:34:38;5.78;;;2.63;;
40939;SDS011;26666;50.156;7.700;2023-06-22T01:39:41;3.85;;;2.58;;
40939;SDS011;26666;50.156;7.700;2023-06-22T01:44:45;7.97;;;2.58;;
40939;SDS011;26666;50.156;7.700;2023-06-22T01:49:47;8.55;;;3.25;;
40939;SDS011;26666;50.156;7.700;2023-06-22T01:54:50;4.15;;;2.88;;
40939;SDS011;26666;50.156;7.700;2023-06-22T01:59:59;6.18;;;3.03;;
40939;SDS011;26666;50.156;7.700;2023-06-22T02:05:03;4.32;;;2.50;;
40939;SDS011;26666;50.156;7.700;2023-06-22T02:10:08;8.02;;;3.42;;
40939;SDS011;26666;50.156;7.700;2023-06-22T02:15:12;7.15;;;2.63;;
40939;SDS011;26666;50.156;7.700;2023-06-22T02:20:15;6.65;;;2.70;;
40939;SDS011;26666;50.156;7.700;2023-06-22T02:25:16;5.43;;;2.40;;
40939;SDS011;26666;50.156;7.700;2023-06-22T02:30:20;7.78;;;4.35;;
40939;SDS011;26666;50.156;7.700;2023-06-22T02:35:21;8.65;;;2.78;;
40939;SDS011;26666;50.156;7.700;2023-06-22T02:40:23;4.82;;;2.55;;
40939;SDS011;26666;50.156;7.700;2023-06-22T02:45:26;4.03;;;2.50;;
40939;SDS011;26666;50.156;7.700;2023-06-22T02:50:28;6.30;;;2.63;;
40939;SDS011;26666;50.156;7.700;2023-06-22T02:55:30;3.58;;;2.80;;
40939;SDS011;26666;50.156;7.700;2023-06-22T03:00:35;4.28;;;2.90;;
40939;SDS011;26666;50.156;7.700;2023-06-22T03:05:37;5.07;;;3.33;;
40939;SDS011;26666;50.156;7.700;2023-06-22T03:10:38;8.50;;;2.72;;
40939;SDS011;26666;50.156;7.700;2023-06-22T03:15:45;6.55;;;2.92;;
40939;SDS011;26666;50.156;7.700;2023-06-22T03:20:46;5.97;;;3.13;;
40939;SDS011;26666;50.156;7.700;2023-06-22T03:25:48;6.47;;;3.40;;
40939;SDS011;26666;50.156;7.700;2023-06-22T03:30:51;7.28;;;3.35;;
40939;SDS011;26666;50.156;7.700;2023-06-22T03:35:53;7.88;;;3.30;;
40939;SDS011;26666;50.156;7.700;2023-06-22T03:40:56;11.45;;;3.05;;
40939;SDS011;26666;50.156;7.700;2023-06-22T03:46:00;9.65;;;2.25;;
40939;SDS011;26666;50.156;7.700;2023-06-22T03:51:02;5.68;;;2.53;;
40939;SDS011;26666;50.156;7.700;2023-06-22T03:56:07;10.82;;;3.10;;
40939;SDS011;26666;50.156;7.700;2023-06-22T04:01:11;11.70;;;3.60;;
40939;SDS011;26666;50.156;7.700;2023-06-22T04:06:12;9.70;;;3.10;;
40939;SDS011;26666;50.156;7.700;2023-06-22T04:11:14;9.88;;;3.10;;
40939;SDS011;26666;50.156;7.700;2023-06-22T04:16:17;6.03;;;3.22;;
40939;SDS011;26666;50.156;7.700;2023-06-22T04:21:19;9.88;;;3.88;;
40939;SDS011;26666;50.156;7.700;2023-06-22T04:26:21;3.28;;;2.63;;
40939;SDS011;26666;50.156;7.700;2023-06-22T04:31:24;3.70;;;2.55;;
40939;SDS011;26666;50.156;7.700;2023-06-22T04:36:26;14.25;;;3.00;;
40939;SDS011;26666;50.156;7.700;2023-06-22T04:41:28;7.25;;;2.38;;
40939;SDS011;26666;50.156;7.700;2023-06-22T04:46:31;3.50;;;2.80;;
40939;SDS011;26666;50.156;7.700;2023-06-22T04:51:32;3.80;;;2.88;;
40939;SDS011;26666;50.156;7.700;2023-06-22T04:56:34;4.00;;;2.70;;
40939;SDS011;26666;50.156;7.700;2023-06-22T05:01:38;4.65;;;2.33;;
40939;SDS011;26666;50.156;7.700;2023-06-22T05:06:39;6.90;;;3.40;;
40939;SDS011;26666;50.156;7.700;2023-06-22T05:11:41;5.10;;;2.72;;
40939;SDS011;26666;50.156;7.700;2023-06-22T05:16:45;4.93;;;2.75;;
40939;SDS011;26666;50.156;7.700;2023-06-22T05:21:47;2.63;;;2.42;;
40939;SDS011;26666;50.156;7.700;2023-06-22T05:26:48;3.95;;;2.33;;
40939;SDS011;26666;50.156;7.700;2023-06-22T05:31:51;4.50;;;2.97;;
40939;SDS011;26666;50.156;7.700;2023-06-22T05:36:53;4.45;;;2.17;;
40939;SDS011;26666;50.156;7.700;2023-06-22T05:41:55;3.20;;;2.63;;
40939;SDS011;26666;50.156;7.700;2023-06-22T05:46:58;6.53;;;2.55;;
40939;SDS011;26666;50.156;7.700;2023-06-22T05:51:59;3.80;;;2.65;;
40939;SDS011;26666;50.156;7.700;2023-06-22T05:57:01;3.60;;;2.35;;
40939;SDS011;26666;50.156;7.700;2023-06-22T06:02:05;3.90;;;2.28;;
40939;SDS011;26666;50.156;7.700;2023-06-22T06:07:07;7.97;;;3.15;;
40939;SDS011;26666;50.156;7.700;2023-06-22T06:12:09;8.07;;;2.92;;
40939;SDS011;26666;50.156;7.700;2023-06-22T06:17:12;7.45;;;4.50;;
40939;SDS011;26666;50.156;7.700;2023-06-22T06:22:14;7.95;;;4.20;;
40939;SDS011;26666;50.156;7.700;2023-06-22T06:27:15;5.05;;;3.10;;
40939;SDS011;26666;50.156;7.700;2023-06-22T06:32:18;4.75;;;3.03;;
40939;SDS011;26666;50.156;7.700;2023-06-22T06:37:20;4.93;;;3.08;;
40939;SDS011;26666;50.156;7.700;2023-06-22T06:42:22;4.45;;;3.08;;
40939;SDS011;26666;50.156;7.700;2023-06-22T06:47:25;10.13;;;3.13;;
40939;SDS011;26666;50.156;7.700;2023-06-22T06:52:27;4.38;;;3.15;;
40939;SDS011;26666;50.156;7.700;2023-06-22T06:57:28;8.75;;;2.97;;
40939;SDS011;26666;50.156;7.700;2023-06-22T07:02:31;5.38;;;3.17;;
40939;SDS011;26666;50.156;7.700;2023-06-22T07:07:33;6.97;;;4.18;;
40939;SDS011;26666;50.156;7.700;2023-06-22T07:12:38;6.20;;;3.63;;
40939;SDS011;26666;50.156;7.700;2023-06-22T07:17:41;8.57;;;4.22;;
40939;SDS011;26666;50.156;7.700;2023-06-22T07:22:44;5.60;;;3.65;;
40939;SDS011;26666;50.156;7.700;2023-06-22T07:27:46;8.65;;;3.05;;
40939;SDS011;26666;50.156;7.700;2023-06-22T07:32:59;6.88;;;3.85;;
40939;SDS011;26666;50.156;7.700;2023-06-22T07:38:01;5.47;;;3.47;;
40939;SDS011;26666;50.156;7.700;2023-06-22T07:43:06;5.28;;;3.60;;
40939;SDS011;26666;50.156;7.700;2023-06-22T07:48:10;7.00;;;3.08;;
40939;SDS011;26666;50.156;7.700;2023-06-22T07:53:11;11.25;;;3.22;;
40939;SDS011;26666;50.156;7.700;2023-06-22T07:58:13;4.47;;;3.20;;
40939;SDS011;26666;50.156;7.700;2023-06-22T08:03:16;4.82;;;3.25;;
40939;SDS011;26666;50.156;7.700;2023-06-22T08:08:18;4.60;;;3.47;;
40939;SDS011;26666;50.156;7.700;2023-06-22T08:13:20;3.95;;;3.05;;
40939;SDS011;26666;50.156;7.700;2023-06-22T08:18:23;4.82;;;3.50;;
40939;SDS011;26666;50.156;7.700;2023-06-22T08:23:25;3.30;;;2.42;;
40939;SDS011;26666;50.156;7.700;2023-06-22T08:28:27;14.52;;;3.42;;
40939;SDS011;26666;50.156;7.700;2023-06-22T08:33:30;6.45;;;3.80;;
40939;SDS011;26666;50.156;7.700;2023-06-22T08:38:32;8.55;;;3.58;;
40939;SDS011;26666;50.156;7.700;2023-06-22T08:43:33;8.10;;;3.38;;
40939;SDS011;26666;50.156;7.700;2023-06-22T08:48:37;8.35;;;3.90;;
40939;SDS011;26666;50.156;7.700;2023-06-22T08:53:38;5.90;;;3.03;;
40939;SDS011;26666;50.156;7.700;2023-06-22T08:58:40;5.90;;;3.70;;
40939;SDS011;26666;50.156;7.700;2023-06-22T09:03:44;5.10;;;3.15;;
40939;SDS011;26666;50.156;7.700;2023-06-22T09:08:46;14.15;;;3.47;;
40939;SDS011;26666;50.156;7.700;2023-06-22T09:13:48;7.03;;;3.88;;
40939;SDS011;26666;50.156;7.700;2023-06-22T09:18:51;4.43;;;3.00;;
40939;SDS011;26666;50.156;7.700;2023-06-22T09:23:53;8.65;;;3.75;;
40939;SDS011;26666;50.156;7.700;2023-06-22T09:28:54;8.20;;;3.20;;
40939;SDS011;26666;50.156;7.700;2023-06-22T09:33:57;4.07;;;3.15;;
40939;SDS011;26666;50.156;7.700;2023-06-22T09:38:59;8.25;;;3.20;;
40939;SDS011;26666;50.156;7.700;2023-06-22T09:44:01;5.43;;;3.50;;
40939;SDS011;26666;50.156;7.700;2023-06-22T09:49:04;5.00;;;3.80;;
40939;SDS011;26666;50.156;7.700;2023-06-22T09:54:06;4.20;;;2.80;;
40939;SDS011;26666;50.156;7.700;2023-06-22T09:59:07;7.30;;;3.35;;
40939;SDS011;26666;50.156;7.700;2023-06-22T10:04:20;4.32;;;3.50;;
40939;SDS011;26666;50.156;7.700;2023-06-22T10:09:22;7.05;;;2.65;;
40939;SDS011;26666;50.156;7.700;2023-06-22T10:14:23;4.28;;;3.22;;
40939;SDS011;26666;50.156;7.700;2023-06-22T10:19:27;6.20;;;2.78;;
40939;SDS011;26666;50.156;7.700;2023-06-22T10:24:28;7.57;;;3.88;;
40939;SDS011;26666;50.156;7.700;2023-06-22T10:29:30;6.32;;;2.55;;
40939;SDS011;26666;50.156;7.700;2023-06-22T10:34:33;9.68;;;3.65;;
40939;SDS011;26666;50.156;7.700;2023-06-22T10:39:35;4.07;;;3.03;;
40939;SDS011;26666;50.156;7.700;2023-06-22T10:44:37;7.75;;;2.88;;
40939;SDS011;26666;50.156;7.700;2023-06-22T10:49:40;4.55;;;2.78;;
40939;SDS011;26666;50.156;7.700;2023-06-22T10:54:42;6.05;;;3.55;;
40939;SDS011;26666;50.156;7.700;2023-06-22T10:59:44;6.50;;;3.38;;
40939;SDS011;26666;50.156;7.700;2023-06-22T11:04:47;3.80;;;3.33;;
40939;SDS011;26666;50.156;7.700;2023-06-22T11:09:49;4.93;;;2.90;;
40939;SDS011;26666;50.156;7.700;2023-06-22T11:14:50;6.85;;;3.40;;
40939;SDS011;26666;50.156;7.700;2023-06-22T11:19:53;6.53;;;3.03;;
40939;SDS011;26666;50.156;7.700;2023-06-22T11:24:55;5.30;;;3.08;;
40939;SDS011;26666;50.156;7.700;2023-06-22T11:29:57;6.75;;;2.90;;
40939;SDS011;26666;50.156;7.700;2023-06-22T11:35:00;10.50;;;4.00;;
40939;SDS011;26666;50.156;7.700;2023-06-22T11:40:02;16.35;;;3.90;;
40939;SDS011;26666;50.156;7.700;2023-06-22T11:45:08;6.25;;;3.45;;
40939;SDS011;26666;50.156;7.700;2023-06-22T11:50:11;6.93;;;3.95;;
40939;SDS011;26666;50.156;7.700;2023-06-22T11:55:13;6.50;;;3.67;;
40939;SDS011;26666;50.156;7.700;2023-06-22T12:00:15;7.05;;;4.05;;
40939;SDS011;26666;50.156;7.700;2023-06-22T12:05:19;10.98;;;3.50;;
40939;SDS011;26666;50.156;7.700;2023-06-22T12:10:21;5.75;;;3.20;;
40939;SDS011;26666;50.156;7.700;2023-06-22T12:15:23;6.80;;;4.05;;
40939;SDS011;26666;50.156;7.700;2023-06-22T12:20:26;7.18;;;3.03;;
40939;SDS011;26666;50.156;7.700;2023-06-22T12:25:29;4.33;;;2.93;;
40939;SDS011;26666;50.156;7.700;2023-06-22T12:30:30;6.25;;;3.05;;
40939;SDS011;26666;50.156;7.700;2023-06-22T12:35:35;8.35;;;3.80;;
40939;SDS011;26666;50.156;7.700;2023-06-22T12:40:37;11.73;;;3.42;;
40939;SDS011;26666;50.156;7.700;2023-06-22T12:45:38;8.68;;;3.80;;
40939;SDS011;26666;50.156;7.700;2023-06-22T12:50:41;5.05;;;3.25;;
40939;SDS011;26666;50.156;7.700;2023-06-22T12:55:43;4.00;;;3.08;;
40939;SDS011;26666;50.156;7.700;2023-06-22T13:00:45;7.28;;;2.80;;
40939;SDS011;26666;50.156;7.700;2023-06-22T13:05:48;5.95;;;3.05;;
40939;SDS011;26666;50.156;7.700;2023-06-22T13:10:50;8.63;;;4.05;;
40939;SDS011;26666;50.156;7.700;2023-06-22T13:15:52;11.68;;;2.88;;
40939;SDS011;26666;50.156;7.700;2023-06-22T13:20:55;9.68;;;2.92;;
40939;SDS011;26666;50.156;7.700;2023-06-22T13:25:57;4.10;;;2.38;;
40939;SDS011;26666;50.156;7.700;2023-06-22T13:30:59;6.63;;;3.97;;
40939;SDS011;26666;50.156;7.700;2023-06-22T13:36:02;3.97;;;2.42;;
40939;SDS011;26666;50.156;7.700;2023-06-22T13:41:04;7.80;;;2.40;;
40939;SDS011;26666;50.156;7.700;2023-06-22T13:46:06;10.95;;;3.05;;
40939;SDS011;26666;50.156;7.700;2023-06-22T13:51:09;14.30;;;3.30;;
40939;SDS011;26666;50.156;7.700;2023-06-22T13:56:11;7.15;;;3.33;;
40939;SDS011;26666;50.156;7.700;2023-06-22T14:01:13;10.57;;;2.80;;
40939;SDS011;26666;50.156;7.700;2023-06-22T14:06:19;16.33;;;3.35;;
40939;SDS011;26666;50.156;7.700;2023-06-22T14:11:21;7.65;;;2.75;;
40939;SDS011;26666;50.156;7.700;2023-06-22T14:16:23;10.50;;;2.38;;
40939;SDS011;26666;50.156;7.700;2023-06-22T14:21:26;4.45;;;2.42;;
40939;SDS011;26666;50.156;7.700;2023-06-22T14:26:28;22.83;;;4.30;;
40939;SDS011;26666;50.156;7.700;2023-06-22T14:31:29;9.68;;;1.20;;
40939;SDS011;26666;50.156;7.700;2023-06-22T14:36:33;6.38;;;0.60;;
40939;SDS011;26666;50.156;7.700;2023-06-22T14:41:34;4.78;;;0.93;;
40939;SDS011;26666;50.156;7.700;2023-06-22T14:46:36;8.68;;;0.70;;
40939;SDS011;26666;50.156;7.700;2023-06-22T14:51:39;11.95;;;1.10;;
40939;SDS011;26666;50.156;7.700;2023-06-22T14:56:41;13.35;;;1.00;;
40939;SDS011;26666;50.156;7.700;2023-06-22T15:01:43;15.48;;;2.20;;
40939;SDS011;26666;50.156;7.700;2023-06-22T15:06:50;5.43;;;1.42;;
40939;SDS011;26666;50.156;7.700;2023-06-22T15:11:52;17.55;;;1.50;;
40939;SDS011;26666;50.156;7.700;2023-06-22T15:16:54;22.75;;;2.95;;
40939;SDS011;26666;50.156;7.700;2023-06-22T15:21:57;14.32;;;2.08;;
40939;SDS011;26666;50.156;7.700;2023-06-22T15:26:59;11.60;;;2.55;;
40939;SDS011;26666;50.156;7.700;2023-06-22T15:32:01;8.13;;;1.92;;
40939;SDS011;26666;50.156;7.700;2023-06-22T15:37:04;14.15;;;2.17;;
40939;SDS011;26666;50.156;7.700;2023-06-22T15:42:06;15.90;;;2.47;;
40939;SDS011;26666;50.156;7.700;2023-06-22T15:47:08;9.65;;;1.75;;
40939;SDS011;26666;50.156;7.700;2023-06-22T15:52:12;6.78;;;1.40;;
40939;SDS011;26666;50.156;7.700;2023-06-22T15:57:13;6.05;;;1.20;;
40939;SDS011;26666;50.156;7.700;2023-06-22T16:02:15;4.68;;;1.45;;
40939;SDS011;26666;50.156;7.700;2023-06-22T16:07:18;4.38;;;1.70;;
40939;SDS011;26666;50.156;7.700;2023-06-22T16:12:20;8.02;;;1.45;;
40939;SDS011;26666;50.156;7.700;2023-06-22T16:17:27;8.25;;;0.80;;
40939;SDS011;26666;50.156;7.700;2023-06-22T16:22:43;6.28;;;0.90;;
40939;SDS011;26666;50.156;7.700;2023-06-22T16:27:45;6.28;;;1.00;;
40939;SDS011;26666;50.156;7.700;2023-06-22T16:32:50;10.88;;;2.47;;
40939;SDS011;26666;50.156;7.700;2023-06-22T16:37:54;6.80;;;1.00;;
40939;SDS011;26666;50.156;7.700;2023-06-22T16:42:56;8.32;;;1.17;;
40939;SDS011;26666;50.156;7.700;2023-06-22T16:47:58;4.55;;;1.48;;
40939;SDS011;26666;50.156;7.700;2023-06-22T16:53:01;8.02;;;1.45;;
40939;SDS011;26666;50.156;7.700;2023-06-22T16:58:03;11.57;;;1.95;;
40939;SDS011;26666;50.156;7.700;2023-06-22T17:03:05;9.65;;;1.52;;
40939;SDS011;26666;50.156;7.700;2023-06-22T17:08:11;4.30;;;1.48;;
40939;SDS011;26666;50.156;7.700;2023-06-22T17:13:15;2.58;;;1.17;;
40939;SDS011;26666;50.156;7.700;2023-06-22T17:18:17;10.13;;;2.45;;
40939;SDS011;26666;50.156;7.700;2023-06-22T17:23:22;8.52;;;1.58;;
40939;SDS011;26666;50.156;7.700;2023-06-22T17:28:25;3.38;;;1.85;;
40939;SDS011;26666;50.156;7.700;2023-06-22T17:33:26;6.53;;;1.67;;
40939;SDS011;26666;50.156;7.700;2023-06-22T17:38:30;6.55;;;1.83;;
40939;SDS011;26666;50.156;7.700;2023-06-22T17:43:31;10.30;;;1.90;;
40939;SDS011;26666;50.156;7.700;2023-06-22T17:48:33;4.47;;;1.70;;
40939;SDS011;26666;50.156;7.700;2023-06-22T17:53:36;5.95;;;1.58;;
40939;SDS011;26666;50.156;7.700;2023-06-22T17:58:38;15.25;;;2.25;;
40939;SDS011;26666;50.156;7.700;2023-06-22T18:03:40;6.25;;;1.50;;
40939;SDS011;26666;50.156;7.700;2023-06-22T18:08:43;4.68;;;1.73;;
40939;SDS011;26666;50.156;7.700;2023-06-22T18:13:45;4.65;;;2.60;;
40939;SDS011;26666;50.156;7.700;2023-06-22T18:18:48;11.52;;;2.15;;
40939;SDS011;26666;50.156;7.700;2023-06-22T18:23:51;3.00;;;1.42;;
40939;SDS011;26666;50.156;7.700;2023-06-22T18:28:54;7.13;;;1.02;;
40939;SDS011;26666;50.156;7.700;2023-06-22T18:33:57;6.20;;;0.35;;
40939;SDS011;26666;50.156;7.700;2023-06-22T18:39:01;7.18;;;0.32;;
40939;SDS011;26666;50.156;7.700;2023-06-22T18:44:07;1.80;;;0.20;;
40939;SDS011;26666;50.156;7.700;2023-06-22T18:49:14;1.38;;;0.30;;
40939;SDS011;26666;50.156;7.700;2023-06-22T18:54:19;1.95;;;0.10;;
40939;SDS011;26666;50.156;7.700;2023-06-22T18:59:41;0.10;;;0.10;;
40939;SDS011;26666;50.156;7.700;2023-06-22T19:04:44;2.42;;;0.20;;
40939;SDS011;26666;50.156;7.700;2023-06-22T19:09:56;3.00;;;0.03;;
40939;SDS011;26666;50.156;7.700;2023-06-22T19:15:30;6.78;;;0.10;;
40939;SDS011;26666;50.156;7.700;2023-06-22T19:20:33;1.15;;;0.00;;
40939;SDS011;26666;50.156;7.700;2023-06-22T19:25:36;3.70;;;0.08;;
40939;SDS011;26666;50.156;7.700;2023-06-22T19:30:39;2.50;;;0.40;;
40939;SDS011;26666;50.156;7.700;2023-06-22T19:35:42;1.85;;;0.10;;
40939;SDS011;26666;50.156;7.700;2023-06-22T19:40:45;0.65;;;0.00;;
40939;SDS011;26666;50.156;7.700;2023-06-22T19:45:49;1.42;;;0.05;;
40939;SDS011;26666;50.156;7.700;2023-06-22T19:50:51;0.30;;;0.00;;
40939;SDS011;26666;50.156;7.700;2023-06-22T19:55:54;2.28;;;0.13;;
40939;SDS011;26666;50.156;7.700;2023-06-22T20:00:58;2.60;;;0.10;;
40939;SDS011;26666;50.156;7.700;2023-06-22T20:11:11;0.85;;;0.00;;
40939;SDS011;26666;50.156;7.700;2023-06-22T20:16:13;1.02;;;0.10;;
40939;SDS011;26666;50.156;7.700;2023-06-22T20:21:21;3.13;;;0.00;;
40939;SDS011;26666;50.156;7.700;2023-06-22T20:26:41;5.20;;;0.10;;
40939;SDS011;26666;50.156;7.700;2023-06-22T20:31:44;6.60;;;0.10;;
40939;SDS011;26666;50.156;7.700;2023-06-22T20:36:45;1.95;;;0.13;;
40939;SDS011;26666;50.156;7.700;2023-06-22T20:41:48;1.33;;;0.08;;
40939;SDS011;26666;50.156;7.700;2023-06-22T20:46:50;0.00;;;0.00;;
40939;SDS011;26666;50.156;7.700;2023-06-22T20:51:52;0.00;;;0.00;;
40939;SDS011;26666;50.156;7.700;2023-06-22T20:56:55;0.52;;;0.00;;
40939;SDS011;26666;50.156;7.700;2023-06-22T21:01:57;0.55;;;0.00;;
40939;SDS011;26666;50.156;7.700;2023-06-22T21:07:00;0.00;;;0.00;;
40939;SDS011;26666;50.156;7.700;2023-06-22T21:12:05;0.00;;;0.00;;
40939;SDS011;26666;50.156;7.700;2023-06-22T21:17:14;0.80;;;0.00;;
40939;SDS011;26666;50.156;7.700;2023-06-22T21:22:17;0.20;;;0.00;;
40939;SDS011;26666;50.156;7.700;2023-06-22T21:27:21;0.85;;;0.00;;
40939;SDS011;26666;50.156;7.700;2023-06-22T21:32:23;0.20;;;0.00;;
40939;SDS011;26666;50.156;7.700;2023-06-22T21:37:24;0.77;;;0.00;;
40939;SDS011;26666;50.156;7.700;2023-06-22T21:42:29;1.05;;;0.00;;
40939;SDS011;26666;50.156;7.700;2023-06-22T21:47:31;0.10;;;0.10;;
40939;SDS011;26666;50.156;7.700;2023-06-22T21:52:33;0.15;;;0.15;;
40939;SDS011;26666;50.156;7.700;2023-06-22T21:57:37;0.95;;;0.50;;
40939;SDS011;26666;50.156;7.700;2023-06-22T22:19:58;2.45;;;0.93;;
40939;SDS011;26666;50.156;7.700;2023-06-22T22:25:00;2.42;;;1.17;;
40939;SDS011;26666;50.156;7.700;2023-06-22T22:30:02;4.07;;;1.02;;
40939;SDS011;26666;50.156;7.700;2023-06-22T22:35:06;2.28;;;1.42;;
40939;SDS011;26666;50.156;7.700;2023-06-22T22:40:09;2.42;;;0.98;;
40939;SDS011;26666;50.156;7.700;2023-06-22T22:45:11;2.58;;;1.10;;
40939;SDS011;26666;50.156;7.700;2023-06-22T22:50:15;1.55;;;1.00;;
40939;SDS011;26666;50.156;7.700;2023-06-22T22:55:17;2.78;;;1.15;;
40939;SDS011;26666;50.156;7.700;2023-06-22T23:00:19;1.83;;;1.10;;
40939;SDS011;26666;50.156;7.700;2023-06-22T23:05:23;4.50;;;1.42;;
40939;SDS011;26666;50.156;7.700;2023-06-22T23:10:24;2.15;;;1.25;;
40939;SDS011;26666;50.156;7.700;2023-06-22T23:15:26;1.80;;;1.45;;
40939;SDS011;26666;50.156;7.700;2023-06-22T23:20:30;7.63;;;1.98;;
40939;SDS011;26666;50.156;7.700;2023-06-22T23:25:32;2.42;;;1.35;;
40939;SDS011;26666;50.156;7.700;2023-06-22T23:30:34;8.60;;;1.92;;
40939;SDS011;26666;50.156;7.700;2023-06-22T23:35:39;4.32;;;1.65;;
40939;SDS011;26666;50.156;7.700;2023-06-22T23:40:41;5.32;;;1.83;;
40939;SDS011;26666;50.156;7.700;2023-06-22T23:45:43;3.38;;;2.08;;
40939;SDS011;26666;50.156;7.700;2023-06-22T23:50:46;3.47;;;1.52;;
40939;SDS011;26666;50.156;7.700;2023-06-22T23:55:48;4.90;;;1.88;;
